logo dgac
Miércoles 22 de Mayo del 2019
Buscar por aerodromo o helipuerto
Ingrese nombre de aeródromo, localidad o designador OACI:
METAR del 22-05-2019 a las 10:00 UTC
METAR SCCH 221000Z AUTO VRB02KT //// R/////// FG ///////// M01/M01 Q1021
Nan: AUTO
Viento: dirección variable, velocidad 2 nudos
Nan: ////
Nan: R///////
Niebla
Nan: /////////
Temperatura: -1 °C
Rocío: -1 °C
Humedad_relativa: 100%
Presión: 1021 hPa
METAR del 22-05-2019 a las 09:00 UTC
METAR SCCH 220900Z AUTO VRB02KT //// R/////// BR ///////// 00/00 Q1021
Nan: AUTO
Viento: dirección variable, velocidad 2 nudos
Nan: ////
Nan: R///////
Neblina
Nan: /////////
Temperatura: 0 °C
Rocío: 0 °C
Humedad_relativa: 100%
Presión: 1021 hPa
METAR del 22-05-2019 a las 08:00 UTC
METAR SCCH 220800Z AUTO 07005KT //// R/////// BR ///////// 01/01 Q1021
Nan: AUTO
Viento: dirección 070 grados, velocidad 5 nudos
Nan: ////
Nan: R///////
Neblina
Nan: /////////
Temperatura: 1 °C
Rocío: 1 °C
Humedad_relativa: 100%
Presión: 1021 hPa
METAR del 22-05-2019 a las 07:00 UTC
METAR SCCH 220700Z AUTO 10005KT //// R/////// BCFG ///////// 01/01 Q1021
Nan: AUTO
Viento: dirección 100 grados, velocidad 5 nudos
Nan: ////
Nan: R///////
Bancos de Niebla
Nan: /////////
Temperatura: 1 °C
Rocío: 1 °C
Humedad_relativa: 100%
Presión: 1021 hPa
METAR del 22-05-2019 a las 06:00 UTC
METAR SCCH 220600Z AUTO 07002KT //// R/////// BCFG ///////// 01/01 Q1022
Nan: AUTO
Viento: dirección 070 grados, velocidad 2 nudos
Nan: ////
Nan: R///////
Bancos de Niebla
Nan: /////////
Temperatura: 1 °C
Rocío: 1 °C
Humedad_relativa: 100%
Presión: 1022 hPa
METAR del 22-05-2019 a las 06:00 UTC
METAR SCCH 220600Z AUTO 07002KT //// R/////// BCFG ///////// 01/01 Q1022
Nan: AUTO
Viento: dirección 070 grados, velocidad 2 nudos
Nan: ////
Nan: R///////
Bancos de Niebla
Nan: /////////
Temperatura: 1 °C
Rocío: 1 °C
Humedad_relativa: 100%
Presión: 1022 hPa
METAR del 22-05-2019 a las 05:00 UTC
METAR SCCH 220500Z AUTO 07004KT //// R/////// ///////// 01/01 Q1022
Nan: AUTO
Viento: dirección 070 grados, velocidad 4 nudos
Nan: ////
Nan: R///////
Nan: /////////
Temperatura: 1 °C
Rocío: 1 °C
Humedad_relativa: 100%
Presión: 1022 hPa
METAR del 22-05-2019 a las 05:00 UTC
METAR SCCH 220500Z AUTO 07004KT //// R/////// ///////// 01/01 Q1022
Nan: AUTO
Viento: dirección 070 grados, velocidad 4 nudos
Nan: ////
Nan: R///////
Nan: /////////
Temperatura: 1 °C
Rocío: 1 °C
Humedad_relativa: 100%
Presión: 1022 hPa
METAR del 22-05-2019 a las 04:00 UTC
METAR SCCH 220400Z AUTO 13002KT //// R/////// ///////// 02/02 Q1022
Nan: AUTO
Viento: dirección 130 grados, velocidad 2 nudos
Nan: ////
Nan: R///////
Nan: /////////
Temperatura: 2 °C
Rocío: 2 °C
Humedad_relativa: 100%
Presión: 1022 hPa
METAR del 22-05-2019 a las 04:00 UTC
METAR SCCH 220400Z AUTO 13002KT //// R/////// ///////// 02/02 Q1022
Nan: AUTO
Viento: dirección 130 grados, velocidad 2 nudos
Nan: ////
Nan: R///////
Nan: /////////
Temperatura: 2 °C
Rocío: 2 °C
Humedad_relativa: 100%
Presión: 1022 hPa